createdAt,value
2023-02-25T00:00:34.533Z,3.50
2023-02-25T00:03:40.360Z,3.51
2023-02-25T00:06:45.512Z,3.45
2023-02-25T00:09:49.768Z,3.41
2023-02-25T00:12:53.959Z,3.44
2023-02-25T00:15:58.776Z,3.48
2023-02-25T00:19:04.114Z,3.51
2023-02-25T00:22:08.573Z,3.44
2023-02-25T00:25:14.337Z,3.45
2023-02-25T00:28:18.524Z,3.40
2023-02-25T00:31:25.351Z,3.40
2023-02-25T00:34:29.999Z,3.44
2023-02-25T00:37:34.399Z,3.46
2023-02-25T00:40:40.110Z,3.43
2023-02-25T00:43:54.332Z,3.38
2023-02-25T00:46:58.442Z,3.37
2023-02-25T00:50:09.480Z,3.39
2023-02-25T00:53:13.884Z,3.42
2023-02-25T00:56:20.181Z,3.40
2023-02-25T00:59:25.020Z,3.38
2023-02-25T01:02:29.938Z,3.37
2023-02-25T01:05:34.254Z,3.35
2023-02-25T01:08:38.993Z,3.33
2023-02-25T01:11:46.360Z,3.34
2023-02-25T01:14:50.786Z,3.35
2023-02-25T01:17:54.761Z,3.33
2023-02-25T01:21:00.561Z,3.30
2023-02-25T01:24:20.764Z,3.29
2023-02-25T01:27:25.245Z,3.26
2023-02-25T01:30:29.937Z,3.29
2023-02-25T01:33:38.555Z,3.23
2023-02-25T01:36:44.363Z,3.20
2023-02-25T01:39:48.756Z,3.09
2023-02-25T01:42:53.208Z,2.98
2023-02-25T01:45:57.594Z,2.84
2023-02-25T01:49:06.518Z,2.80
2023-02-25T01:52:20.254Z,2.63
2023-02-25T01:55:24.721Z,2.59
2023-02-25T01:58:29.856Z,2.54
2023-02-25T02:01:36.679Z,2.43
2023-02-25T02:04:42.710Z,2.34
2023-02-25T02:07:48.269Z,2.32
2023-02-25T02:10:52.882Z,2.26
2023-02-25T02:13:59.419Z,2.18
2023-02-25T02:18:02.458Z,2.14
2023-02-25T02:21:25.269Z,2.18
2023-02-25T02:24:44.416Z,2.18
2023-02-25T02:28:26.635Z,2.16
2023-02-25T02:31:50.954Z,2.18
2023-02-25T02:35:03.101Z,2.20
2023-02-25T02:38:24.726Z,2.18
2023-02-25T02:41:50.159Z,2.22
2023-02-25T02:45:28.473Z,2.27
2023-02-25T02:48:53.289Z,2.27
2023-02-25T02:52:15.114Z,2.31
2023-02-25T02:55:24.063Z,2.31
2023-02-25T02:58:43.092Z,2.35
2023-02-25T03:01:58.585Z,2.36
2023-02-25T03:05:09.787Z,2.29
2023-02-25T03:08:29.353Z,2.31
2023-02-25T03:11:33.925Z,2.28
2023-02-25T03:14:38.181Z,2.25
2023-02-25T03:17:52.449Z,2.30
2023-02-25T03:20:58.856Z,2.29
2023-02-25T03:24:08.333Z,2.28
2023-02-25T03:27:36.674Z,2.30
2023-02-25T03:30:57.142Z,2.35
2023-02-25T03:34:31.260Z,2.37
2023-02-25T03:37:38.663Z,2.30
2023-02-25T03:40:43.739Z,2.31
2023-02-25T03:43:56.736Z,2.32
2023-02-25T03:47:04.168Z,2.33
2023-02-25T03:50:30.846Z,2.29
2023-02-25T03:53:35.738Z,2.27
2023-02-25T03:56:47.732Z,2.29
2023-02-25T03:59:56.270Z,2.28
2023-02-25T04:03:00.579Z,2.31
2023-02-25T04:06:05.526Z,2.34
2023-02-25T04:09:09.889Z,2.34
2023-02-25T04:12:15.605Z,2.26
2023-02-25T04:15:21.047Z,2.22
2023-02-25T04:18:26.601Z,2.22
2023-02-25T04:21:35.538Z,2.25
2023-02-25T04:24:40.256Z,2.27
2023-02-25T04:27:44.809Z,2.30
2023-02-25T04:30:49.073Z,2.33
2023-02-25T04:33:53.821Z,2.37
2023-02-25T04:36:58.072Z,2.42
2023-02-25T04:40:04.355Z,2.36
2023-02-25T04:43:09.878Z,2.36
2023-02-25T04:46:14.535Z,2.41
2023-02-25T04:49:21.529Z,2.43
2023-02-25T04:52:26.220Z,2.40
2023-02-25T04:55:31.791Z,2.42
2023-02-25T04:58:37.468Z,2.43
2023-02-25T05:01:43.165Z,2.36
2023-02-25T05:04:48.944Z,2.37
2023-02-25T05:07:53.727Z,2.40
2023-02-25T05:10:58.470Z,2.39
2023-02-25T05:14:02.633Z,2.40
2023-02-25T05:17:06.970Z,2.42
2023-02-25T05:20:12.773Z,2.41
2023-02-25T05:23:17.534Z,2.40
2023-02-25T05:26:25.111Z,2.42
2023-02-25T05:29:29.808Z,2.40
2023-02-25T05:32:34.592Z,2.36
2023-02-25T05:35:40.889Z,2.42
2023-02-25T05:38:45.785Z,2.43
2023-02-25T05:41:51.690Z,2.44
2023-02-25T05:44:56.007Z,2.39
2023-02-25T05:48:00.582Z,2.42
2023-02-25T05:51:13.793Z,2.40
2023-02-25T05:54:18.193Z,2.43
2023-02-25T05:57:23.915Z,2.38
2023-02-25T06:00:28.784Z,2.35
2023-02-25T06:03:32.961Z,2.35
2023-02-25T06:06:37.744Z,2.26
2023-02-25T06:09:42.350Z,2.18
2023-02-25T06:12:46.684Z,2.13
2023-02-25T06:15:51.074Z,2.21
2023-02-25T06:18:56.407Z,2.23
2023-02-25T06:22:01.140Z,2.25
2023-02-25T06:25:06.244Z,2.27
2023-02-25T06:28:10.889Z,2.28
2023-02-25T06:31:19.002Z,2.24
2023-02-25T06:34:23.829Z,2.28
2023-02-25T06:37:28.066Z,2.31
2023-02-25T06:40:35.075Z,2.32
2023-02-25T06:43:39.247Z,2.29
2023-02-25T06:46:43.568Z,2.28
2023-02-25T06:49:48.364Z,2.26
2023-02-25T06:52:52.917Z,2.30
2023-02-25T06:55:59.029Z,2.26
2023-02-25T06:59:04.335Z,2.28
2023-02-25T07:02:13.142Z,2.28
2023-02-25T07:05:17.865Z,2.35
2023-02-25T07:08:21.873Z,2.28
2023-02-25T07:11:30.632Z,2.27
2023-02-25T07:14:35.100Z,2.34
2023-02-25T07:17:39.345Z,2.32
2023-02-25T07:20:44.062Z,2.31
2023-02-25T07:23:49.162Z,2.38
2023-02-25T07:26:55.565Z,2.35
2023-02-25T07:30:01.436Z,2.34
2023-02-25T07:33:06.060Z,2.35
2023-02-25T07:36:12.349Z,2.34
2023-02-25T07:39:16.655Z,2.30
2023-02-25T07:42:20.839Z,2.33
2023-02-25T07:45:24.967Z,2.26
2023-02-25T07:48:29.521Z,2.23
2023-02-25T07:51:34.010Z,2.18
2023-02-25T07:54:38.436Z,2.13
2023-02-25T07:57:42.733Z,2.16
2023-02-25T08:00:48.273Z,2.22
2023-02-25T08:04:00.702Z,2.21
2023-02-25T08:07:06.712Z,2.19
2023-02-25T08:10:11.436Z,2.20
2023-02-25T08:13:15.624Z,2.17
2023-02-25T08:16:22.034Z,2.14
2023-02-25T08:19:26.846Z,2.06
2023-02-25T08:22:30.883Z,2.09
2023-02-25T08:25:35.666Z,2.07
2023-02-25T08:28:39.860Z,1.85
2023-02-25T08:31:43.969Z,2.01
2023-02-25T08:34:52.133Z,2.10
2023-02-25T08:37:56.527Z,2.10
2023-02-25T08:41:01.107Z,2.09
2023-02-25T08:44:05.757Z,2.13
2023-02-25T08:47:10.033Z,2.11
2023-02-25T08:50:14.191Z,2.13
2023-02-25T08:53:19.231Z,2.05
2023-02-25T08:56:23.652Z,2.15
2023-02-25T08:59:28.250Z,2.20
2023-02-25T09:02:32.648Z,2.09
2023-02-25T09:05:38.043Z,1.97
2023-02-25T09:08:42.365Z,1.92
2023-02-25T09:11:48.895Z,1.90
2023-02-25T09:14:53.328Z,2.03
2023-02-25T09:17:57.762Z,2.22
2023-02-25T09:21:07.681Z,2.42
2023-02-25T09:24:12.234Z,2.63
2023-02-25T09:27:16.485Z,2.65
2023-02-25T09:30:20.797Z,2.59
2023-02-25T09:33:26.382Z,2.48
2023-02-25T09:36:32.203Z,2.41
2023-02-25T09:39:36.564Z,2.34
2023-02-25T09:42:59.869Z,2.28
2023-02-25T09:46:16.514Z,2.18
2023-02-25T09:49:44.732Z,2.34
2023-02-25T09:53:07.382Z,2.55
2023-02-25T09:56:16.429Z,2.64
2023-02-25T09:59:22.193Z,2.73
2023-02-25T10:02:37.765Z,2.82
2023-02-25T10:05:52.064Z,2.86
2023-02-25T10:09:24.913Z,2.98
2023-02-25T10:12:56.898Z,2.99
2023-02-25T10:16:21.596Z,3.00
2023-02-25T10:19:51.169Z,3.00
2023-02-25T10:23:13.671Z,3.30
2023-02-25T10:26:33.478Z,3.53
2023-02-25T10:29:49.660Z,3.48
2023-02-25T10:32:55.755Z,3.43
2023-02-25T10:36:14.653Z,3.33
2023-02-25T10:39:19.165Z,3.51
2023-02-25T10:42:24.914Z,3.85
2023-02-25T10:45:32.280Z,4.07
2023-02-25T10:48:36.756Z,4.26
2023-02-25T10:52:03.309Z,3.91
2023-02-25T10:55:38.179Z,3.65
2023-02-25T10:58:59.246Z,3.82
2023-02-25T11:02:22.143Z,4.16
2023-02-25T11:05:43.569Z,4.54
2023-02-25T11:08:48.272Z,4.62
2023-02-25T11:12:08.920Z,4.53
2023-02-25T11:15:41.585Z,4.20
2023-02-25T11:18:55.453Z,4.11
2023-02-25T11:22:06.836Z,4.13
2023-02-25T11:25:20.869Z,4.45
2023-02-25T11:28:49.928Z,4.74
2023-02-25T11:32:12.672Z,4.97
2023-02-25T11:35:24.379Z,5.03
2023-02-25T11:38:43.001Z,4.69
2023-02-25T11:42:15.802Z,4.64
2023-02-25T11:45:20.236Z,4.51
2023-02-25T11:48:40.680Z,4.17
2023-02-25T11:52:16.031Z,4.10
2023-02-25T11:56:16.843Z,4.29
2023-02-25T11:59:44.873Z,4.49
2023-02-25T12:03:46.343Z,4.44
2023-02-25T12:07:15.359Z,4.35
2023-02-25T12:10:46.074Z,4.23
2023-02-25T12:14:19.107Z,4.40
2023-02-25T12:17:38.406Z,4.54
2023-02-25T12:21:35.665Z,4.48
2023-02-25T12:25:16.436Z,4.53
2023-02-25T12:28:45.020Z,4.70
2023-02-25T12:32:30.562Z,4.87
2023-02-25T12:35:56.696Z,4.79
2023-02-25T12:39:54.538Z,4.87
2023-02-25T12:43:36.743Z,4.88
2023-02-25T12:47:04.836Z,5.09
2023-02-25T12:50:53.661Z,5.24
2023-02-25T12:54:45.833Z,5.61
2023-02-25T12:58:22.933Z,5.63
2023-02-25T13:02:17.143Z,5.61
2023-02-25T13:06:05.800Z,5.29
2023-02-25T13:09:31.797Z,5.36
2023-02-25T13:13:09.642Z,5.58
2023-02-25T13:16:47.897Z,5.48
2023-02-25T13:20:29.272Z,5.01
2023-02-25T13:23:51.688Z,5.16
2023-02-25T13:27:27.720Z,5.49
2023-02-25T13:31:16.817Z,5.64
2023-02-25T13:35:07.859Z,5.94
2023-02-25T13:38:21.912Z,6.34
2023-02-25T13:41:55.242Z,6.47
2023-02-25T13:45:30.926Z,6.06
2023-02-25T13:49:14.469Z,5.81
2023-02-25T13:52:56.414Z,5.92
2023-02-25T13:56:40.158Z,6.03
2023-02-25T14:00:31.952Z,5.61
2023-02-25T14:04:20.712Z,5.32
2023-02-25T14:08:11.585Z,5.18
2023-02-25T14:12:18.635Z,5.10
2023-02-25T14:15:42.181Z,5.05
2023-02-25T14:19:34.770Z,5.01
2023-02-25T14:22:47.094Z,5.06
2023-02-25T14:26:22.766Z,5.04
2023-02-25T14:30:20.469Z,4.84
2023-02-25T14:33:52.455Z,4.57
2023-02-25T14:37:37.038Z,4.51
2023-02-25T14:40:56.445Z,4.45
2023-02-25T14:44:10.365Z,4.42
2023-02-25T14:47:24.169Z,4.34
2023-02-25T14:50:58.353Z,4.22
2023-02-25T14:54:36.660Z,4.01
2023-02-25T14:57:43.466Z,3.92
2023-02-25T15:01:36.901Z,3.94
2023-02-25T15:05:05.402Z,3.90
2023-02-25T15:08:34.139Z,3.92
2023-02-25T15:12:09.982Z,3.87
2023-02-25T15:15:57.417Z,3.72
2023-02-25T15:19:38.017Z,3.59
2023-02-25T15:23:16.467Z,3.47
2023-02-25T15:26:41.086Z,3.51
2023-02-25T15:29:45.461Z,3.47
2023-02-25T15:33:27.300Z,3.47
2023-02-25T15:36:53.328Z,3.67
2023-02-25T15:40:15.934Z,3.90
2023-02-25T15:43:20.130Z,3.93
2023-02-25T15:46:37.179Z,3.86
2023-02-25T15:49:47.556Z,3.83
2023-02-25T15:52:59.784Z,3.68
2023-02-25T15:56:04.251Z,3.51
2023-02-25T15:59:08.722Z,3.40
2023-02-25T16:02:40.971Z,3.31
2023-02-25T16:05:46.718Z,3.23
2023-02-25T16:09:08.557Z,3.18
2023-02-25T16:12:16.177Z,3.08
2023-02-25T16:15:45.045Z,2.99
2023-02-25T16:18:52.355Z,2.86
2023-02-25T16:22:16.615Z,2.80
2023-02-25T16:25:42.331Z,2.65
2023-02-25T16:29:15.816Z,2.62
2023-02-25T16:32:45.458Z,2.60
2023-02-25T16:36:26.742Z,2.61
2023-02-25T16:39:32.113Z,2.52
2023-02-25T16:42:36.368Z,2.42
2023-02-25T16:46:05.767Z,2.28
2023-02-25T16:49:19.158Z,2.20
2023-02-25T16:52:28.908Z,2.12
2023-02-25T16:55:40.426Z,2.05
2023-02-25T16:58:57.240Z,1.95
2023-02-25T17:02:29.161Z,1.88
2023-02-25T17:05:37.946Z,1.83
2023-02-25T17:08:50.526Z,1.79
2023-02-25T17:11:57.025Z,1.72
2023-02-25T17:15:24.196Z,1.70
2023-02-25T17:18:33.037Z,1.60
2023-02-25T17:21:44.151Z,1.59
2023-02-25T17:24:52.970Z,1.62
2023-02-25T17:27:58.951Z,1.64
2023-02-25T17:31:20.469Z,1.63
2023-02-25T17:34:33.071Z,1.70
2023-02-25T17:37:39.100Z,1.70
2023-02-25T17:40:44.772Z,1.65
2023-02-25T17:43:48.905Z,1.60
2023-02-25T17:46:53.942Z,1.58
2023-02-25T17:50:21.013Z,1.49
2023-02-25T17:54:18.295Z,1.45
2023-02-25T17:57:24.335Z,1.40
2023-02-25T18:00:35.651Z,1.32
2023-02-25T18:03:47.306Z,1.22
2023-02-25T18:06:55.569Z,1.18
2023-02-25T18:10:01.622Z,1.09
2023-02-25T18:13:05.884Z,1.07
2023-02-25T18:16:22.778Z,1.03
2023-02-25T18:19:37.625Z,0.88
2023-02-25T18:22:48.444Z,0.79
2023-02-25T18:26:25.981Z,0.73
2023-02-25T18:29:31.536Z,0.62
2023-02-25T18:32:35.922Z,0.59
2023-02-25T18:35:44.806Z,0.59
2023-02-25T18:38:50.667Z,0.53
2023-02-25T18:41:54.996Z,0.53
2023-02-25T18:44:59.079Z,0.52
2023-02-25T18:48:03.136Z,0.48
2023-02-25T18:51:14.036Z,0.45
2023-02-25T18:54:18.479Z,0.45
2023-02-25T18:57:26.085Z,0.40
2023-02-25T19:00:30.978Z,0.39
2023-02-25T19:03:39.235Z,0.38
2023-02-25T19:06:44.466Z,0.42
2023-02-25T19:09:49.335Z,0.38
2023-02-25T19:13:02.823Z,0.39
2023-02-25T19:16:07.797Z,0.41
2023-02-25T19:19:14.088Z,0.38
2023-02-25T19:22:18.909Z,0.35
2023-02-25T19:25:36.106Z,0.32
2023-02-25T19:28:40.497Z,0.29
2023-02-25T19:31:44.772Z,0.31
2023-02-25T19:34:49.741Z,0.32
2023-02-25T19:37:54.548Z,0.30
2023-02-25T19:41:05.006Z,0.29
2023-02-25T19:44:09.360Z,0.31
2023-02-25T19:47:13.532Z,0.31
2023-02-25T19:50:21.904Z,0.31
2023-02-25T19:53:26.419Z,0.39
2023-02-25T19:56:30.873Z,0.34
2023-02-25T19:59:35.206Z,0.34
2023-02-25T20:02:40.111Z,0.36
2023-02-25T20:05:44.752Z,0.38
2023-02-25T20:08:52.498Z,0.39
2023-02-25T20:11:56.683Z,0.38
2023-02-25T20:15:00.913Z,0.36
2023-02-25T20:18:05.654Z,0.36
2023-02-25T20:21:10.121Z,0.37
2023-02-25T20:24:14.651Z,0.36
2023-02-25T20:27:18.992Z,0.31
2023-02-25T20:30:23.615Z,0.34
2023-02-25T20:33:28.036Z,0.35
2023-02-25T20:36:54.867Z,0.30
2023-02-25T20:40:00.405Z,0.30
2023-02-25T20:43:05.896Z,0.24
2023-02-25T20:46:25.998Z,0.27
2023-02-25T20:49:31.091Z,0.25
2023-02-25T20:52:35.832Z,0.23
2023-02-25T20:55:40.027Z,0.22
2023-02-25T20:58:44.228Z,0.16
2023-02-25T21:01:49.236Z,0.14
2023-02-25T21:04:53.582Z,0.08
2023-02-25T21:07:58.245Z,0.09
2023-02-25T21:11:02.576Z,0.06
2023-02-25T21:14:10.216Z,0.06
2023-02-25T21:17:14.573Z,0.08
2023-02-25T21:20:19.553Z,0.05
2023-02-25T21:23:24.566Z,0.02
2023-02-25T21:26:28.685Z,0.01
2023-02-25T21:29:33.250Z,-0.02
2023-02-25T21:32:37.524Z,-0.05
2023-02-25T21:35:54.051Z,-0.04
2023-02-25T21:38:58.321Z,-0.06
2023-02-25T21:42:02.676Z,-0.11
2023-02-25T21:45:09.393Z,-0.13
2023-02-25T21:48:14.043Z,-0.12
2023-02-25T21:51:22.288Z,-0.08
2023-02-25T21:54:26.860Z,-0.07
2023-02-25T21:57:31.275Z,-0.06
2023-02-25T22:00:35.538Z,0.00
2023-02-25T22:03:39.948Z,-0.03
2023-02-25T22:06:46.940Z,-0.01
2023-02-25T22:09:51.568Z,0.14
2023-02-25T22:12:55.830Z,0.20
2023-02-25T22:16:03.937Z,0.26
2023-02-25T22:19:08.332Z,0.32
2023-02-25T22:22:14.141Z,0.32
2023-02-25T22:25:19.621Z,0.37
2023-02-25T22:28:24.039Z,0.34
2023-02-25T22:31:29.226Z,0.38
2023-02-25T22:34:33.466Z,0.44
2023-02-25T22:37:38.057Z,0.47
2023-02-25T22:40:42.302Z,0.40
2023-02-25T22:43:48.196Z,0.27
2023-02-25T22:46:54.122Z,0.15
2023-02-25T22:49:58.466Z,0.08
2023-02-25T22:53:02.846Z,-0.04
2023-02-25T22:56:10.576Z,-0.14
2023-02-25T22:59:15.347Z,-0.21
2023-02-25T23:02:19.702Z,-0.29
2023-02-25T23:05:23.864Z,-0.36
2023-02-25T23:08:27.986Z,-0.43
2023-02-25T23:11:35.274Z,-0.49
2023-02-25T23:14:39.840Z,-0.48
2023-02-25T23:17:45.975Z,-0.52
2023-02-25T23:20:53.504Z,-0.64
2023-02-25T23:24:00.565Z,-0.80
2023-02-25T23:27:05.389Z,-0.84
2023-02-25T23:30:10.738Z,-0.85
2023-02-25T23:33:16.135Z,-0.79
2023-02-25T23:36:20.278Z,-0.84
2023-02-25T23:39:25.222Z,-0.86
2023-02-25T23:42:30.497Z,-0.85
2023-02-25T23:45:34.646Z,-0.86
2023-02-25T23:48:38.911Z,-0.81
2023-02-25T23:51:45.816Z,-0.77
2023-02-25T23:54:50.100Z,-0.76
2023-02-25T23:57:54.230Z,-0.77
